Time;durP1;ratioP1;P1;durP2;ratioP2;P2;SDS_P1;SDS_P2;PMS_P1;PMS_P2;Temp;Humidity;BMP_temperature;BMP_pressure;BME280_temperature;BME280_humidity;BME280_pressure;Samples;Min_cycle;Max_cycle;Signal;HPM_P1;HPM_P2
2021/04/08 00:00:37;;;;;;;3.17;2.60;;;4.70;1.00;;;;;;5073603;28;20271;-68
2021/04/08 00:03:03;;;;;;;4.03;3.07;;;4.50;1.00;;;;;;5086497;28;20601;-67
2021/04/08 00:05:29;;;;;;;3.40;3.10;;;4.30;1.00;;;;;;5067397;28;20206;-68
2021/04/08 00:07:54;;;;;;;3.97;3.30;;;4.10;1.00;;;;;;5069710;28;20191;-67
2021/04/08 00:10:20;;;;;;;4.30;2.67;;;3.90;1.00;;;;;;5070871;28;20217;-68
2021/04/08 00:12:45;;;;;;;5.57;2.90;;;3.90;11.30;;;;;;5070557;28;20194;-68
2021/04/08 00:15:14;;;;;;;5.43;3.20;;;3.90;52.10;;;;;;5071073;28;20187;-68
2021/04/08 00:17:39;;;;;;;5.20;3.67;;;3.80;99.90;;;;;;5070571;28;20184;-68
2021/04/08 00:20:15;;;;;;;5.93;3.60;;;3.80;99.90;;;;;;5069838;28;20499;-67
2021/04/08 00:22:40;;;;;;;4.10;2.90;;;3.80;99.90;;;;;;5086110;28;20185;-67
2021/04/08 00:25:06;;;;;;;3.17;2.20;;;3.80;99.90;;;;;;5075851;28;20456;-67
2021/04/08 00:27:32;;;;;;;4.37;3.07;;;3.90;99.90;;;;;;5069028;28;20264;-67
2021/04/08 00:29:57;;;;;;;4.80;3.53;;;4.00;99.90;;;;;;5076580;28;20858;-67
2021/04/08 00:32:23;;;;;;;5.20;4.10;;;4.00;99.90;;;;;;5070634;28;20194;-68
2021/04/08 00:34:48;;;;;;;5.33;4.10;;;4.10;99.90;;;;;;5070047;28;20286;-67
2021/04/08 00:37:14;;;;;;;5.93;4.43;;;4.10;99.90;;;;;;5070600;28;20205;-68
2021/04/08 00:39:41;;;;;;;6.10;5.50;;;4.10;99.90;;;;;;5072509;28;20561;-68
2021/04/08 00:42:07;;;;;;;8.27;5.33;;;4.20;99.90;;;;;;5080287;28;20193;-67
2021/04/08 00:44:33;;;;;;;5.50;4.80;;;4.10;99.90;;;;;;5074320;28;20444;-67
2021/04/08 00:46:59;;;;;;;9.83;4.80;;;4.10;99.90;;;;;;5080674;28;20505;-67
2021/04/08 00:49:24;;;;;;;6.17;4.23;;;4.30;99.90;;;;;;5075779;28;20953;-68
2021/04/08 00:51:51;;;;;;;6.60;3.53;;;4.20;99.90;;;;;;5073408;28;20495;-67
2021/04/08 00:54:17;;;;;;;5.07;4.07;;;4.20;99.90;;;;;;5069936;28;20179;-67
2021/04/08 00:56:43;;;;;;;3.40;2.90;;;4.20;99.90;;;;;;5069670;28;20802;-67
2021/04/08 00:59:09;;;;;;;3.83;3.10;;;4.10;99.90;;;;;;5069702;28;20460;-67
2021/04/08 01:01:34;;;;;;;6.63;2.97;;;4.00;99.90;;;;;;5070372;28;20544;-67
2021/04/08 01:04:00;;;;;;;8.70;3.90;;;4.00;99.90;;;;;;5068599;28;20290;-67
2021/04/08 01:06:25;;;;;;;7.77;3.37;;;4.10;99.90;;;;;;5070571;28;20254;-67
2021/04/08 01:08:51;;;;;;;6.23;3.13;;;4.20;99.90;;;;;;5069377;28;20296;-67
2021/04/08 01:11:17;;;;;;;5.90;3.17;;;4.20;99.90;;;;;;5071834;28;20279;-67
2021/04/08 01:13:43;;;;;;;10.50;4.00;;;4.10;99.90;;;;;;5073751;28;20212;-67
2021/04/08 01:16:21;;;;;;;5.13;4.00;;;4.10;99.90;;;;;;5083420;28;20536;-67
2021/04/08 01:19:18;;;;;;;7.50;4.67;;;4.10;99.90;;;;;;5079090;28;20452;-67
2021/04/08 01:21:57;;;;;;;9.87;4.90;;;4.00;99.90;;;;;;5073111;28;20451;-67
2021/04/08 01:24:26;;;;;;;5.03;4.53;;;4.00;99.90;;;;;;5070535;28;20448;-67
2021/04/08 01:27:13;;;;;;;5.97;4.13;;;4.00;99.90;;;;;;5082912;28;20468;-67
2021/04/08 01:30:13;;;;;;;7.43;4.93;;;3.80;99.90;;;;;;5089773;28;20476;-67
2021/04/08 01:32:44;;;;;;;6.93;4.60;;;3.90;99.90;;;;;;5070910;28;20452;-67
2021/04/08 01:35:10;;;;;;;5.07;4.23;;;4.00;99.90;;;;;;5072025;28;20535;-66
2021/04/08 01:37:55;;;;;;;5.37;4.57;;;4.00;99.90;;;;;;5084837;28;20450;-66
2021/04/08 01:40:23;;;;;;;5.13;3.40;;;3.90;99.90;;;;;;5074083;28;20943;-66
2021/04/08 01:42:51;;;;;;;5.53;3.70;;;3.70;99.90;;;;;;5077116;28;20448;-66
2021/04/08 01:45:20;;;;;;;5.67;4.00;;;3.80;99.90;;;;;;5078428;28;20451;-67
2021/04/08 01:47:46;;;;;;;8.73;4.17;;;3.80;99.90;;;;;;5079019;28;20445;-67
2021/04/08 01:50:13;;;;;;;5.30;3.90;;;3.80;99.90;;;;;;5073462;28;20843;-66
2021/04/08 01:52:41;;;;;;;7.40;4.23;;;3.70;99.90;;;;;;5077361;28;20455;-66
2021/04/08 01:55:08;;;;;;;5.40;4.13;;;3.50;99.90;;;;;;5089112;28;20444;-67
2021/04/08 01:57:37;;;;;;;4.80;3.67;;;3.50;99.90;;;;;;5078385;28;20509;-67
2021/04/08 02:00:05;;;;;;;5.90;4.47;;;3.60;99.90;;;;;;5072351;28;20448;-67
2021/04/08 02:02:31;;;;;;;9.10;4.60;;;3.60;99.90;;;;;;5071388;28;20448;-67
2021/04/08 02:04:57;;;;;;;9.23;5.90;;;3.60;99.90;;;;;;5077108;28;20455;-68
2021/04/08 02:07:25;;;;;;;9.30;5.37;;;3.70;99.90;;;;;;5075063;28;20593;-68
2021/04/08 02:09:52;;;;;;;8.00;5.60;;;3.70;99.90;;;;;;5076899;28;20474;-68
2021/04/08 02:12:19;;;;;;;10.77;6.20;;;3.70;99.90;;;;;;5072619;28;20448;-68
2021/04/08 02:14:46;;;;;;;6.47;5.30;;;3.70;99.90;;;;;;5084885;28;20440;-69
2021/04/08 02:17:16;;;;;;;7.13;4.90;;;3.80;99.90;;;;;;5086710;28;20445;-68
2021/04/08 02:19:46;;;;;;;7.93;4.27;;;3.90;99.90;;;;;;5071793;28;20463;-67
2021/04/08 02:22:13;;;;;;;6.33;4.73;;;4.00;99.90;;;;;;5072774;28;20463;-69
2021/04/08 02:24:40;;;;;;;7.57;3.37;;;4.00;99.90;;;;;;5075619;28;20506;-67
2021/04/08 02:27:06;;;;;;;4.90;3.10;;;4.20;99.90;;;;;;5070960;28;20476;-67
2021/04/08 02:29:33;;;;;;;8.70;3.40;;;4.10;99.90;;;;;;5072564;28;20474;-67
2021/04/08 02:32:01;;;;;;;9.73;3.07;;;4.20;99.90;;;;;;5071725;28;20445;-67
2021/04/08 02:34:27;;;;;;;4.37;2.67;;;4.10;99.90;;;;;;5089313;28;20819;-67
2021/04/08 02:36:52;;;;;;;4.17;2.93;;;4.10;99.90;;;;;;5072543;28;20429;-67
2021/04/08 02:39:18;;;;;;;5.33;2.90;;;4.20;99.90;;;;;;5077772;28;20454;-67
2021/04/08 02:41:47;;;;;;;13.20;3.60;;;4.20;99.70;;;;;;5071649;28;20189;-67
2021/04/08 02:44:14;;;;;;;6.23;2.90;;;4.00;99.90;;;;;;5072838;28;20276;-68
2021/04/08 02:46:40;;;;;;;4.60;3.10;;;4.00;99.90;;;;;;5071080;28;20791;-67
2021/04/08 02:49:05;;;;;;;5.23;2.97;;;4.10;99.90;;;;;;5083698;28;20574;-67
2021/04/08 02:51:43;;;;;;;7.80;3.50;;;4.00;96.50;;;;;;5086009;28;20185;-68
2021/04/08 02:54:31;;;;;;;6.23;3.37;;;4.00;98.90;;;;;;5076298;28;20181;-69
2021/04/08 02:57:00;;;;;;;3.90;2.70;;;4.10;79.50;;;;;;5071781;28;20480;-67
2021/04/08 02:59:54;;;;;;;5.27;3.10;;;4.10;57.50;;;;;;5082442;28;20435;-68
2021/04/08 03:02:24;;;;;;;6.97;3.67;;;4.00;65.90;;;;;;5072516;28;20487;-68
2021/04/08 03:04:54;;;;;;;7.93;3.43;;;4.00;64.40;;;;;;5071943;28;20456;-67
2021/04/08 03:07:33;;;;;;;4.10;3.20;;;4.00;61.20;;;;;;5071300;28;20441;-67
2021/04/08 03:10:03;;;;;;;6.07;4.00;;;4.00;71.70;;;;;;5071344;28;20554;-67
2021/04/08 03:12:31;;;;;;;6.27;2.83;;;4.00;65.40;;;;;;5066546;28;20442;-68
2021/04/08 03:14:58;;;;;;;7.70;2.97;;;3.80;67.00;;;;;;5071788;28;20437;-67
2021/04/08 03:17:31;;;;;;;3.70;2.60;;;3.80;68.70;;;;;;5082107;28;20447;-67
2021/04/08 03:19:59;;;;;;;8.80;2.53;;;3.90;62.60;;;;;;5071885;28;20473;-68
2021/04/08 03:22:27;;;;;;;8.23;2.77;;;4.00;55.30;;;;;;5068543;28;20923;-67
2021/04/08 03:24:56;;;;;;;10.73;3.13;;;3.90;33.90;;;;;;5072282;28;20436;-67
2021/04/08 03:27:26;;;;;;;5.80;2.70;;;3.90;24.90;;;;;;5068703;28;20482;-68
2021/04/08 03:29:53;;;;;;;5.87;2.93;;;3.80;10.80;;;;;;5071002;28;20497;-68
2021/04/08 03:32:19;;;;;;;3.77;2.67;;;3.80;11.20;;;;;;5072102;28;20472;-68
2021/04/08 03:34:46;;;;;;;6.43;3.50;;;3.80;1.00;;;;;;5083643;28;20487;-68
2021/04/08 03:37:12;;;;;;;4.77;3.77;;;3.80;1.00;;;;;;5071191;28;20841;-67
2021/04/08 03:39:39;;;;;;;3.10;2.60;;;3.80;1.00;;;;;;5071617;28;20502;-67
2021/04/08 03:42:05;;;;;;;6.97;3.93;;;3.80;1.00;;;;;;5070905;28;20528;-68
2021/04/08 03:44:33;;;;;;;8.60;3.93;;;3.80;1.80;;;;;;5069824;28;20973;-68
2021/04/08 03:46:59;;;;;;;5.97;4.60;;;3.90;4.00;;;;;;5069071;28;20457;-68
2021/04/08 03:49:26;;;;;;;7.53;4.20;;;3.90;4.10;;;;;;5073360;28;20484;-68
2021/04/08 03:51:53;;;;;;;9.00;4.57;;;3.80;8.00;;;;;;5071663;28;20922;-68
2021/04/08 03:54:20;;;;;;;5.30;4.27;;;3.70;13.30;;;;;;5069622;28;20799;-68
2021/04/08 03:56:49;;;;;;;8.27;4.23;;;3.70;12.30;;;;;;5076687;28;20446;-70
2021/04/08 03:59:17;;;;;;;8.03;5.10;;;3.70;19.80;;;;;;5090471;28;20443;-66
2021/04/08 04:01:45;;;;;;;7.13;3.97;;;3.50;29.80;;;;;;5067287;28;20722;-67
2021/04/08 04:04:12;;;;;;;7.50;5.03;;;3.70;28.70;;;;;;5070438;28;20807;-67
2021/04/08 04:06:41;;;;;;;8.80;5.07;;;3.70;29.40;;;;;;5070243;28;20440;-67
2021/04/08 04:09:10;;;;;;;7.77;4.83;;;3.70;32.30;;;;;;5069695;28;20479;-67
2021/04/08 04:11:39;;;;;;;13.33;6.83;;;3.60;30.70;;;;;;5073454;28;20445;-67
2021/04/08 04:14:07;;;;;;;13.10;6.97;;;3.70;32.60;;;;;;5076161;28;20443;-67
2021/04/08 04:16:37;;;;;;;14.03;7.87;;;3.60;59.10;;;;;;5072592;28;20501;-66
2021/04/08 04:19:03;;;;;;;10.73;7.33;;;3.60;97.30;;;;;;5073745;28;20467;-65
2021/04/08 04:21:30;;;;;;;13.10;7.40;;;3.30;99.90;;;;;;5090811;28;20506;-64
2021/04/08 04:23:56;;;;;;;12.40;7.37;;;3.30;99.90;;;;;;5090636;28;20202;-64
2021/04/08 04:26:21;;;;;;;11.00;7.40;;;3.30;99.90;;;;;;5073824;28;20973;-63
2021/04/08 04:28:47;;;;;;;11.20;7.67;;;3.40;99.90;;;;;;5068969;28;20203;-63
2021/04/08 04:31:12;;;;;;;9.80;6.50;;;3.50;99.90;;;;;;5072334;28;20594;-67
2021/04/08 04:33:38;;;;;;;12.97;7.27;;;3.50;99.90;;;;;;5080062;28;20175;-67
2021/04/08 04:36:04;;;;;;;13.37;7.73;;;3.50;99.90;;;;;;5084031;28;20223;-67
2021/04/08 04:38:30;;;;;;;13.73;8.47;;;3.60;99.90;;;;;;5080578;28;20242;-67
2021/04/08 04:40:55;;;;;;;12.83;8.87;;;3.60;99.90;;;;;;5080079;28;20912;-65
2021/04/08 04:43:21;;;;;;;24.33;8.57;;;3.20;99.90;;;;;;5080221;28;20215;-67
2021/04/08 04:45:46;;;;;;;15.97;8.33;;;3.20;99.90;;;;;;5083019;28;20172;-65
2021/04/08 04:48:12;;;;;;;16.73;9.10;;;3.10;99.90;;;;;;5079829;28;20181;-65
2021/04/08 04:50:38;;;;;;;14.43;8.43;;;3.10;99.90;;;;;;5070835;28;20671;-65
2021/04/08 04:53:04;;;;;;;11.73;7.90;;;3.00;99.90;;;;;;5073971;28;20194;-66
2021/04/08 04:55:29;;;;;;;14.13;7.50;;;3.10;99.90;;;;;;5070117;28;20568;-68
2021/04/08 04:57:55;;;;;;;9.37;6.43;;;3.10;99.90;;;;;;5076639;28;20434;-67
2021/04/08 05:00:21;;;;;;;14.93;7.27;;;3.10;99.90;;;;;;5070113;28;20189;-67
2021/04/08 05:02:47;;;;;;;12.70;6.83;;;3.20;99.90;;;;;;5070282;28;20533;-67
2021/04/08 05:05:13;;;;;;;11.53;6.97;;;3.30;99.90;;;;;;5070272;28;20433;-65
2021/04/08 05:07:39;;;;;;;9.23;6.40;;;3.50;99.90;;;;;;5070032;28;20182;-65
2021/04/08 05:10:05;;;;;;;13.13;6.63;;;3.50;99.90;;;;;;5069508;28;20467;-66
2021/04/08 05:12:30;;;;;;;12.87;7.03;;;3.70;99.90;;;;;;5070320;28;20207;-65
2021/04/08 05:14:56;;;;;;;10.83;7.27;;;3.60;99.90;;;;;;5069296;28;20442;-65
2021/04/08 05:17:21;;;;;;;13.73;7.10;;;7.60;99.90;;;;;;5075444;28;20177;-65
2021/04/08 05:19:47;;;;;;;11.60;6.97;;;3.70;99.90;;;;;;5078610;28;20189;-66
2021/04/08 05:22:12;;;;;;;13.90;7.10;;;3.50;99.90;;;;;;5079907;28;20646;-66
2021/04/08 05:24:38;;;;;;;9.77;5.30;;;3.50;99.90;;;;;;5079663;28;20265;-65
2021/04/08 05:27:04;;;;;;;12.53;5.93;;;;;;;;;;5080559;28;20236;-66
2021/04/08 05:29:30;;;;;;;10.93;6.77;;;3.60;99.90;;;;;;5081540;28;20671;-65
2021/04/08 05:31:55;;;;;;;14.00;6.73;;;3.70;99.90;;;;;;5069919;28;20479;-65
2021/04/08 05:34:21;;;;;;;9.83;6.07;;;3.70;99.90;;;;;;5069957;28;20312;-65
2021/04/08 05:36:46;;;;;;;9.33;6.03;;;3.90;99.90;;;;;;5069921;28;20176;-66
2021/04/08 05:39:12;;;;;;;11.90;6.30;;;4.00;99.90;;;;;;5069609;28;20184;-65
2021/04/08 05:41:37;;;;;;;10.40;6.13;;;3.90;99.90;;;;;;5074385;28;20193;-66
2021/04/08 05:44:04;;;;;;;7.67;4.77;;;4.00;99.90;;;;;;5073184;28;20193;-65
2021/04/08 05:46:30;;;;;;;6.73;4.70;;;3.90;99.90;;;;;;5079382;28;20335;-66
2021/04/08 05:48:55;;;;;;;8.60;4.03;;;4.00;99.90;;;;;;5069610;28;20452;-66
2021/04/08 05:51:21;;;;;;;6.20;4.47;;;4.10;99.90;;;;;;5075503;28;20439;-66
2021/04/08 05:53:47;;;;;;;9.33;4.00;;;4.10;99.90;;;;;;5086703;28;20175;-66
2021/04/08 05:56:12;;;;;;;6.90;3.00;;;4.00;99.90;;;;;;5072888;28;20614;-66
2021/04/08 05:58:38;;;;;;;4.27;2.90;;;4.10;99.90;;;;;;5078449;28;20178;-67
2021/04/08 06:01:04;;;;;;;8.47;3.00;;;4.00;99.90;;;;;;5088473;28;20193;-66
2021/04/08 06:03:30;;;;;;;6.27;3.53;;;4.00;99.90;;;;;;5074634;28;20183;-66
2021/04/08 06:05:56;;;;;;;9.20;3.13;;;4.00;99.90;;;;;;5055599;28;20632;-66
2021/04/08 06:08:21;;;;;;;11.50;3.87;;;4.00;99.90;;;;;;5072791;28;20175;-68
2021/04/08 06:10:47;;;;;;;4.77;2.73;;;4.20;99.90;;;;;;5083356;28;20181;-68
2021/04/08 06:13:13;;;;;;;5.60;3.23;;;4.30;99.90;;;;;;5075797;28;20185;-67
2021/04/08 06:15:39;;;;;;;4.63;2.47;;;4.10;99.90;;;;;;5073539;28;20236;-66
2021/04/08 06:18:05;;;;;;;7.80;2.87;;;4.20;99.90;;;;;;5072770;28;20189;-67
2021/04/08 06:20:30;;;;;;;4.77;2.83;;;4.10;99.90;;;;;;5079353;28;20505;-67
2021/04/08 06:22:56;;;;;;;5.73;2.47;;;4.30;99.90;;;;;;5072621;28;20222;-67
2021/04/08 06:25:23;;;;;;;10.10;3.30;;;4.40;99.90;;;;;;5075387;28;20187;-66
2021/04/08 06:27:49;;;;;;;4.80;2.57;;;4.70;99.90;;;;;;5072960;28;20645;-67
2021/04/08 06:30:16;;;;;;;6.47;3.03;;;4.50;99.90;;;;;;5072898;28;20471;-67
2021/04/08 06:32:41;;;;;;;4.67;2.97;;;4.60;99.90;;;;;;5074058;28;20453;-66
2021/04/08 06:35:08;;;;;;;4.57;3.20;;;4.50;92.90;;;;;;5081390;28;20946;-67
2021/04/08 06:37:34;;;;;;;8.40;3.00;;;4.60;94.40;;;;;;5072538;28;20706;-68
2021/04/08 06:40:00;;;;;;;6.23;2.60;;;4.70;89.30;;;;;;5083799;28;20527;-69
2021/04/08 06:42:27;;;;;;;8.23;3.77;;;4.70;63.50;;;;;;5093141;28;20183;-68
2021/04/08 06:44:55;;;;;;;7.33;3.70;;;4.60;57.00;;;;;;5086819;28;20185;-68
2021/04/08 06:47:30;;;;;;;5.00;3.30;;;4.50;57.80;;;;;;5070774;28;21033;-68
2021/04/08 06:50:02;;;;;;;6.00;3.00;;;4.50;59.50;;;;;;5071822;28;20467;-69
2021/04/08 06:52:29;;;;;;;7.13;3.23;;;4.40;60.80;;;;;;5071847;28;20540;-68
2021/04/08 06:54:54;;;;;;;7.67;3.33;;;4.40;59.60;;;;;;5072112;28;20484;-69
2021/04/08 06:57:20;;;;;;;6.40;3.87;;;4.60;51.90;;;;;;5072256;28;20451;-68
2021/04/08 06:59:47;;;;;;;9.90;4.30;;;4.60;53.40;;;;;;5090261;28;20208;-68
2021/04/08 07:02:21;;;;;;;9.40;4.00;;;4.60;36.80;;;;;;5091594;28;20439;-69
2021/04/08 07:04:47;;;;;;;4.53;3.77;;;4.60;23.90;;;;;;5072366;28;20532;-67
2021/04/08 07:07:16;;;;;;;10.67;5.03;;;4.70;16.20;;;;;;5070400;28;20973;-68
2021/04/08 07:09:43;;;;;;;4.63;3.80;;;4.70;12.50;;;;;;5071796;28;20499;-69
2021/04/08 07:12:10;;;;;;;8.17;4.03;;;4.60;16.00;;;;;;5071414;28;20437;-68
2021/04/08 07:14:37;;;;;;;7.33;3.57;;;4.70;11.80;;;;;;5070371;28;20436;-68
2021/04/08 07:17:03;;;;;;;8.00;3.80;;;4.80;13.00;;;;;;5071658;28;20476;-68
2021/04/08 07:19:29;;;;;;;5.17;2.80;;;5.00;1.00;;;;;;5071593;28;20953;-68
2021/04/08 07:21:59;;;;;;;6.60;3.27;;;5.20;1.00;;;;;;5075614;28;20444;-67
2021/04/08 07:24:25;;;;;;;4.50;2.73;;;5.20;1.00;;;;;;5071502;28;20532;-67
2021/04/08 07:26:58;;;;;;;5.27;3.30;;;5.30;1.00;;;;;;5072223;28;20477;-68
2021/04/08 07:29:39;;;;;;;7.23;4.50;;;5.30;1.00;;;;;;5071869;28;20461;-68
2021/04/08 07:32:05;;;;;;;8.90;5.43;;;5.40;1.00;;;;;;5069238;28;20944;-68
2021/04/08 07:34:34;;;;;;;8.47;3.90;;;4.90;1.00;;;;;;5076758;28;20429;-68
2021/04/08 07:36:59;;;;;;;9.30;4.83;;;4.90;1.00;;;;;;5077898;28;20441;-67
2021/04/08 07:39:25;;;;;;;6.17;4.60;;;4.90;1.00;;;;;;5071531;28;20533;-68
2021/04/08 07:42:04;;;;;;;6.63;5.20;;;5.00;1.00;;;;;;5070959;28;20191;-69
2021/04/08 07:44:40;;;;;;;8.47;4.83;;;5.10;1.00;;;;;;5070798;28;20193;-68
2021/04/08 07:47:21;;;;;;;6.73;5.00;;;5.00;1.00;;;;;;5071312;28;20516;-68
2021/04/08 07:49:50;;;;;;;9.40;5.17;;;5.30;1.00;;;;;;5068617;28;20558;-68
2021/04/08 07:52:23;;;;;;;6.77;4.87;;;5.40;1.00;;;;;;5070209;28;20490;-68
2021/04/08 07:55:07;;;;;;;11.63;4.77;;;5.30;1.00;;;;;;5069931;28;20426;-68
2021/04/08 07:58:04;;;;;;;11.43;4.93;;;5.30;1.00;;;;;;5068235;28;20481;-67
2021/04/08 08:00:44;;;;;;;8.87;4.73;;;5.30;1.00;;;;;;5072646;28;20434;-68
2021/04/08 08:03:19;;;;;;;8.90;3.87;;;5.50;1.00;;;;;;5070466;28;20498;-67
2021/04/08 08:05:46;;;;;;;5.30;4.03;;;5.50;1.00;;;;;;5070584;28;20448;-68
2021/04/08 08:08:14;;;;;;;8.80;3.77;;;5.50;1.00;;;;;;5071250;28;20518;-68
2021/04/08 08:10:42;;;;;;;7.73;3.57;;;5.50;1.00;;;;;;5078000;28;20585;-68
2021/04/08 08:13:28;;;;;;;6.37;3.90;;;5.90;1.00;;;;;;5088476;28;20807;-69
2021/04/08 08:15:55;;;;;;;7.00;3.33;;;6.30;1.00;;;;;;5069057;28;20451;-69
2021/04/08 08:18:32;;;;;;;6.37;3.13;;;6.30;1.00;;;;;;5070884;28;20433;-68
2021/04/08 08:21:10;;;;;;;5.80;3.10;;;6.20;1.00;;;;;;5071029;28;20469;-68
2021/04/08 08:23:43;;;;;;;10.43;3.53;;;6.10;1.00;;;;;;5069239;28;20513;-68
2021/04/08 08:26:42;;;;;;;6.13;3.70;;;5.70;1.00;;;;;;5077760;28;21024;-68
2021/04/08 08:29:10;;;;;;;7.40;3.57;;;5.50;1.00;;;;;;5061331;28;20547;-61
2021/04/08 08:31:37;;;;;;;6.33;3.70;;;5.60;1.00;;;;;;5070412;28;20434;-68
2021/04/08 08:34:09;;;;;;;4.87;2.50;;;5.70;1.00;;;;;;5070376;28;20433;-68
2021/04/08 08:36:36;;;;;;;5.80;2.70;;;5.60;1.00;;;;;;5068475;28;20499;-68
2021/04/08 08:39:05;;;;;;;5.47;2.70;;;5.70;1.00;;;;;;5090833;28;20515;-68
2021/04/08 08:41:31;;;;;;;6.07;2.70;;;5.90;1.00;;;;;;5080362;28;20438;-67
2021/04/08 08:43:57;;;;;;;5.33;3.17;;;6.10;1.00;;;;;;5065717;28;20532;-67
2021/04/08 08:46:27;;;;;;;8.03;2.87;;;6.40;1.00;;;;;;5065588;28;20537;-68
2021/04/08 08:48:54;;;;;;;4.30;2.47;;;6.60;1.00;;;;;;5069907;28;20476;-67
2021/04/08 08:51:22;;;;;;;4.43;2.30;;;6.70;1.00;;;;;;5070252;28;20475;-68
2021/04/08 08:53:50;;;;;;;7.83;3.00;;;6.50;1.00;;;;;;5068247;28;20444;-67
2021/04/08 08:56:16;;;;;;;6.87;3.07;;;6.50;1.00;;;;;;5070231;28;20788;-68
2021/04/08 08:58:42;;;;;;;5.80;2.60;;;6.40;1.00;;;;;;5079730;28;20444;-67
2021/04/08 09:01:08;;;;;;;4.70;2.73;;;6.50;1.00;;;;;;5090776;28;20715;-69
2021/04/08 09:03:34;;;;;;;7.10;2.60;;;6.40;1.00;;;;;;5088387;28;20257;-66
2021/04/08 09:06:05;;;;;;;6.50;2.53;;;6.60;1.00;;;;;;5072784;28;20171;-67
2021/04/08 09:08:36;;;;;;;11.57;2.30;;;6.60;1.00;;;;;;5090827;28;20448;-68
2021/04/08 09:11:02;;;;;;;4.73;2.20;;;6.60;1.00;;;;;;5070581;28;20613;-67
2021/04/08 09:13:28;;;;;;;4.23;2.40;;;6.20;1.00;;;;;;5070158;28;20690;-69
2021/04/08 09:15:58;;;;;;;11.67;2.80;;;6.30;1.00;;;;;;5069876;28;20433;-68
2021/04/08 09:18:27;;;;;;;11.43;2.10;;;6.60;1.00;;;;;;5070454;28;20467;-68
2021/04/08 09:20:54;;;;;;;6.87;2.50;;;7.00;1.00;;;;;;5080103;28;20451;-68
2021/04/08 09:23:22;;;;;;;4.60;1.60;;;7.30;1.00;;;;;;5090840;28;20494;-69
2021/04/08 09:25:55;;;;;;;2.20;1.90;;;7.10;1.00;;;;;;5078612;28;20563;-69
2021/04/08 09:28:22;;;;;;;9.00;2.87;;;6.80;1.00;;;;;;5075092;28;20450;-70
2021/04/08 09:33:43;;;;;;;7.97;2.43;;;6.60;1.00;;;;;;5074734;28;20444;-70
2021/04/08 09:36:21;;;;;;;4.00;2.20;;;6.90;1.00;;;;;;5073054;28;22080;-70
2021/04/08 09:38:48;;;;;;;3.73;1.97;;;6.90;1.00;;;;;;5073742;28;20476;-70
2021/04/08 09:41:14;;;;;;;8.10;2.40;;;7.10;1.00;;;;;;5074375;28;20519;-70
2021/04/08 09:43:40;;;;;;;3.80;1.40;;;;;;;;;;5089391;28;20586;-69
2021/04/08 09:46:11;;;;;;;4.73;1.60;;;7.30;1.00;;;;;;5092649;28;20544;-69
2021/04/08 09:48:48;;;;;;;5.00;1.80;;;6.90;1.00;;;;;;5074393;28;20942;-69
2021/04/08 09:51:44;;;;;;;2.20;1.20;;;6.90;1.00;;;;;;5072847;28;20457;-69
2021/04/08 09:54:12;;;;;;;3.60;1.90;;;6.90;1.00;;;;;;5073079;28;20458;-69
2021/04/08 09:56:45;;;;;;;4.00;1.83;;;7.00;1.00;;;;;;5074300;28;20437;-69
2021/04/08 09:59:12;;;;;;;3.93;2.10;;;7.20;1.00;;;;;;5094678;28;20469;-68
2021/04/08 10:01:38;;;;;;;4.80;2.03;;;7.70;1.00;;;;;;5085944;28;20452;-69
2021/04/08 10:04:10;;;;;;;3.57;1.37;;;8.10;1.00;;;;;;5091453;28;20489;-67
2021/04/08 10:06:36;;;;;;;5.67;1.83;;;8.00;1.00;;;;;;5080257;28;20504;-69
2021/04/08 10:09:10;;;;;;;5.60;2.20;;;7.70;1.00;;;;;;5081046;28;20503;-69
2021/04/08 10:11:37;;;;;;;4.23;1.30;;;7.70;1.00;;;;;;5077027;28;20197;-69
2021/04/08 10:14:20;;;;;;;5.50;1.70;;;7.60;1.00;;;;;;5092400;28;20431;-69
2021/04/08 10:17:18;;;;;;;4.37;2.03;;;7.50;1.00;;;;;;5094332;28;20729;-69
2021/04/08 10:19:44;;;;;;;2.57;1.33;;;7.80;1.00;;;;;;5079841;28;20934;-69
2021/04/08 10:22:11;;;;;;;3.63;1.67;;;8.30;1.00;;;;;;5072481;28;20479;-69
2021/04/08 10:24:40;;;;;;;3.80;1.80;;;8.60;1.00;;;;;;5072488;28;20274;-70
2021/04/08 10:27:22;;;;;;;4.47;2.00;;;8.70;1.00;;;;;;5073094;28;20554;-69
2021/04/08 10:29:49;;;;;;;5.00;1.93;;;8.50;1.00;;;;;;5073935;28;20544;-69
2021/04/08 10:32:32;;;;;;;5.90;2.00;;;8.00;1.00;;;;;;5073245;28;20779;-68
2021/04/08 10:34:58;;;;;;;6.77;1.83;;;7.60;1.00;;;;;;5074004;28;20480;-69
2021/04/08 10:37:24;;;;;;;4.90;1.67;;;7.80;1.00;;;;;;5083666;28;20454;-69
2021/04/08 10:39:50;;;;;;;5.83;1.60;;;8.00;1.00;;;;;;5093669;28;20181;-69
2021/04/08 10:42:16;;;;;;;2.90;1.97;;;8.10;1.00;;;;;;5074872;28;20179;-69
2021/04/08 10:44:47;;;;;;;3.53;1.40;;;8.50;1.00;;;;;;5072271;28;20449;-69
2021/04/08 10:47:21;;;;;;;5.50;1.70;;;8.80;1.00;;;;;;5073034;28;20487;-68
2021/04/08 10:49:56;;;;;;;4.57;1.47;;;8.40;1.00;;;;;;5078033;28;20456;-69
2021/04/08 10:52:26;;;;;;;2.20;0.80;;;7.90;1.00;;;;;;5072861;28;20548;-68
2021/04/08 10:54:56;;;;;;;4.03;1.53;;;7.90;1.00;;;;;;5073343;28;20787;-69
2021/04/08 10:57:23;;;;;;;3.20;1.20;;;8.30;1.00;;;;;;5071580;28;20479;-68
2021/04/08 10:59:50;;;;;;;3.03;1.40;;;8.50;1.00;;;;;;5071553;28;20449;-69
2021/04/08 11:02:29;;;;;;;1.60;1.10;;;8.80;1.00;;;;;;5088315;28;20437;-69
2021/04/08 11:04:58;;;;;;;5.27;2.13;;;9.50;1.00;;;;;;5087955;28;20429;-69
2021/04/08 11:07:26;;;;;;;3.50;1.60;;;9.40;1.00;;;;;;5073055;28;20448;-69
2021/04/08 11:09:53;;;;;;;3.20;1.50;;;9.00;1.00;;;;;;5077664;28;20732;-70
2021/04/08 11:12:23;;;;;;;2.93;1.70;;;8.90;1.00;;;;;;5080219;28;21116;-69
2021/04/08 11:14:58;;;;;;;4.93;1.77;;;8.80;1.00;;;;;;5072398;28;20440;-69
2021/04/08 11:17:27;;;;;;;3.40;1.63;;;8.40;1.00;;;;;;5072133;28;20448;-69
2021/04/08 11:19:55;;;;;;;6.23;2.47;;;8.40;1.00;;;;;;5070768;28;20981;-70
2021/04/08 11:22:29;;;;;;;2.70;2.40;;;8.30;1.00;;;;;;5072177;28;20445;-69
2021/04/08 11:24:56;;;;;;;3.93;3.50;;;7.90;1.00;;;;;;5072536;28;20474;-69
2021/04/08 11:27:27;;;;;;;6.37;3.40;;;7.70;1.00;;;;;;5082077;28;20552;-69
2021/04/08 11:29:53;;;;;;;4.67;2.10;;;7.60;1.00;;;;;;5072114;28;20560;-69
2021/04/08 11:32:18;;;;;;;4.70;2.00;;;7.50;1.00;;;;;;5072108;28;20866;-69
2021/04/08 11:34:53;;;;;;;2.83;1.83;;;7.80;1.00;;;;;;5071524;28;20461;-69
2021/04/08 11:37:32;;;;;;;4.37;2.40;;;8.30;1.00;;;;;;5072212;28;20201;-69
2021/04/08 11:40:00;;;;;;;6.20;1.40;;;8.50;1.00;;;;;;5072127;28;20434;-69
2021/04/08 11:42:32;;;;;;;1.90;1.53;;;8.50;1.00;;;;;;5071803;28;20524;-67
2021/04/08 11:44:58;;;;;;;2.63;1.20;;;8.30;1.00;;;;;;5071837;28;20430;-66
2021/04/08 11:47:23;;;;;;;1.20;1.10;;;8.20;1.00;;;;;;5070491;28;20510;-67
2021/04/08 11:49:51;;;;;;;2.80;1.37;;;8.00;1.00;;;;;;5070134;28;20349;-68
2021/04/08 11:52:27;;;;;;;4.73;1.80;;;8.20;1.00;;;;;;5080898;28;20175;-67
2021/04/08 11:55:11;;;;;;;2.90;1.50;;;8.50;1.00;;;;;;5084839;28;20507;-67
2021/04/08 11:57:37;;;;;;;3.43;1.20;;;8.50;1.00;;;;;;5087382;28;20425;-67
2021/04/08 12:00:12;;;;;;;4.77;2.00;;;8.40;1.00;;;;;;5091768;28;20535;-67
2021/04/08 12:02:38;;;;;;;4.80;1.67;;;8.40;1.00;;;;;;5091389;28;20185;-67
2021/04/08 12:05:22;;;;;;;3.83;2.13;;;9.00;1.00;;;;;;5091683;28;20787;-67
2021/04/08 12:07:50;;;;;;;2.03;1.30;;;9.20;1.00;;;;;;5091462;28;20767;-67
2021/04/08 12:10:22;;;;;;;4.03;1.67;;;9.30;1.00;;;;;;5081822;28;21056;-68
2021/04/08 12:13:11;;;;;;;3.70;1.57;;;9.40;1.00;;;;;;5071029;28;20431;-67
2021/04/08 12:15:39;;;;;;;4.03;1.63;;;9.60;1.00;;;;;;5061502;28;20439;-67
2021/04/08 12:18:19;;;;;;;3.40;1.50;;;9.30;1.00;;;;;;5071159;28;20964;-69
2021/04/08 12:20:48;;;;;;;5.37;1.70;;;9.00;1.00;;;;;;5071084;28;20434;-67
2021/04/08 12:23:19;;;;;;;3.13;2.03;;;8.00;1.00;;;;;;5071554;28;20830;-67
2021/04/08 12:25:53;;;;;;;4.27;2.40;;;8.00;1.00;;;;;;5070633;28;20461;-68
2021/04/08 12:28:22;;;;;;;4.07;2.43;;;7.40;1.00;;;;;;5070074;28;20444;-68
2021/04/08 12:31:01;;;;;;;3.07;2.40;;;6.90;1.00;;;;;;5087428;28;20453;-67
2021/04/08 12:33:35;;;;;;;3.63;2.40;;;6.70;1.00;;;;;;5091352;28;20437;-68
2021/04/08 12:36:04;;;;;;;6.50;4.53;;;6.70;1.00;;;;;;5073064;28;20434;-68
2021/04/08 12:38:31;;;;;;;5.13;3.10;;;6.70;1.00;;;;;;5070794;28;20437;-67
2021/04/08 12:40:57;;;;;;;4.07;2.03;;;7.00;1.00;;;;;;5070188;28;20445;-67
2021/04/08 12:43:25;;;;;;;3.27;2.07;;;7.70;1.00;;;;;;5070870;28;20445;-68
2021/04/08 12:45:50;;;;;;;2.80;2.07;;;8.20;1.00;;;;;;5070844;28;20441;-67
2021/04/08 12:48:16;;;;;;;2.20;2.07;;;8.70;1.00;;;;;;5070593;28;20437;-68
2021/04/08 12:50:44;;;;;;;2.67;2.23;;;9.10;1.00;;;;;;5085479;28;20213;-67
2021/04/08 12:53:12;;;;;;;5.23;2.10;;;9.60;1.00;;;;;;5088437;28;20191;-69
2021/04/08 12:55:38;;;;;;;3.57;1.73;;;9.60;1.00;;;;;;5068459;28;20832;-68
2021/04/08 12:58:04;;;;;;;3.30;1.53;;;9.60;1.00;;;;;;5070300;28;20473;-68
2021/04/08 13:00:30;;;;;;;2.13;1.60;;;9.70;1.00;;;;;;5070561;28;20950;-67
2021/04/08 13:02:56;;;;;;;11.30;1.93;;;9.30;1.00;;;;;;5070578;28;20488;-67
2021/04/08 13:05:23;;;;;;;2.70;2.00;;;9.30;1.00;;;;;;5068402;28;20472;-67
2021/04/08 13:07:50;;;;;;;2.33;2.13;;;9.30;1.00;;;;;;5070716;28;20190;-67
2021/04/08 13:10:16;;;;;;;3.30;2.63;;;9.30;1.00;;;;;;5070121;28;20504;-67
2021/04/08 13:12:42;;;;;;;5.33;3.70;;;9.10;1.00;;;;;;5070646;28;20434;-66